Time;durP1;ratioP1;P1;durP2;ratioP2;P2;SDS_P1;SDS_P2;PMS_P1;PMS_P2;Temp;Humidity;BMP_temperature;BMP_pressure;BME280_temperature;BME280_humidity;BME280_pressure;Samples;Min_cycle;Max_cycle;Signal;HPM_P1;HPM_P2
2022/03/31 00:01:50;;;;;;;41.25;18.73;;;9.50;95.10;;;;;;6184835;28;20504;-85
2022/03/31 00:04:57;;;;;;;45.90;22.08;;;9.50;95.20;;;;;;6184806;28;20055;-84
2022/03/31 00:08:01;;;;;;;48.80;19.88;;;9.50;95.10;;;;;;6185583;28;20095;-85
2022/03/31 00:11:03;;;;;;;54.08;20.25;;;9.50;95.20;;;;;;6188545;28;20137;-84
2022/03/31 00:14:06;;;;;;;46.10;18.83;;;9.40;95.10;;;;;;6178859;28;20042;-85
2022/03/31 00:17:08;;;;;;;43.33;17.85;;;9.40;95.40;;;;;;6190960;28;20568;-85
2022/03/31 00:20:11;;;;;;;51.38;21.15;;;9.30;95.40;;;;;;6207469;28;20054;-84
2022/03/31 00:23:19;;;;;;;55.15;21.17;;;9.30;95.50;;;;;;6213624;28;20054;-84
2022/03/31 00:26:21;;;;;;;44.22;19.48;;;9.30;95.50;;;;;;6214514;28;20054;-84
2022/03/31 00:29:24;;;;;;;43.20;17.98;;;9.30;95.70;;;;;;6220849;28;20055;-84
2022/03/31 00:32:26;;;;;;;46.25;19.60;;;9.50;95.60;;;;;;6218061;28;20051;-86
2022/03/31 00:35:30;;;;;;;47.88;19.40;;;9.40;95.60;;;;;;6213224;28;20070;-85
2022/03/31 00:42:09;;;;;;;52.67;20.20;;;9.30;95.60;;;;;;6210234;28;20046;-85
2022/03/31 00:45:17;;;;;;;42.97;16.25;;;9.20;95.70;;;;;;6214598;28;20048;-84
2022/03/31 00:48:21;;;;;;;41.40;18.65;;;9.10;95.80;;;;;;6215398;28;20062;-84
2022/03/31 00:51:23;;;;;;;46.67;19.15;;;9.10;95.70;;;;;;6214437;28;20058;-84
2022/03/31 00:54:39;;;;;;;55.58;23.17;;;9.00;95.80;;;;;;6213862;28;20039;-85
2022/03/31 00:57:43;;;;;;;42.42;18.02;;;9.00;95.90;;;;;;6213445;28;20042;-85
2022/03/31 01:01:03;;;;;;;48.00;21.10;;;9.00;95.90;;;;;;6212776;28;20042;-84
2022/03/31 01:04:18;;;;;;;45.35;19.85;;;8.70;96.00;;;;;;6213708;28;20057;-85
2022/03/31 01:07:21;;;;;;;46.38;20.85;;;8.80;96.20;;;;;;6212234;28;20046;-84
2022/03/31 01:10:32;;;;;;;49.95;20.10;;;8.90;96.30;;;;;;6208578;28;20523;-85
2022/03/31 01:13:39;;;;;;;48.88;19.92;;;8.80;96.20;;;;;;6200725;28;20046;-85
2022/03/31 01:16:43;;;;;;;50.78;22.20;;;8.80;96.20;;;;;;6229142;23;20542;-83
2022/03/31 01:19:45;;;;;;;36.25;16.02;;;8.80;96.30;;;;;;6198056;28;20591;-83
2022/03/31 01:22:47;;;;;;;48.90;19.60;;;8.80;96.20;;;;;;6178735;28;20050;-81
2022/03/31 01:25:50;;;;;;;49.17;19.38;;;8.80;96.20;;;;;;6178235;28;20166;-83
2022/03/31 01:28:52;;;;;;;43.10;16.58;;;8.80;96.10;;;;;;6178263;28;20047;-82
2022/03/31 01:31:54;;;;;;;42.88;17.15;;;8.80;95.80;;;;;;6179329;28;20051;-82
2022/03/31 01:34:56;;;;;;;38.08;18.10;;;8.80;95.90;;;;;;6178122;28;20047;-82
2022/03/31 01:37:58;;;;;;;37.60;16.25;;;8.80;95.70;;;;;;6177805;28;20057;-82
2022/03/31 01:41:01;;;;;;;39.25;18.08;;;8.80;95.70;;;;;;6177834;28;20105;-82
2022/03/31 01:44:04;;;;;;;48.03;19.48;;;8.80;95.80;;;;;;6178156;28;20046;-82
2022/03/31 01:47:06;;;;;;;38.47;17.98;;;8.90;95.80;;;;;;6177198;28;20517;-83
2022/03/31 01:50:09;;;;;;;38.67;17.58;;;9.00;95.80;;;;;;6177906;28;20105;-82
2022/03/31 01:53:11;;;;;;;36.00;16.60;;;9.10;95.20;;;;;;6177227;28;20077;-83
2022/03/31 01:56:14;;;;;;;38.17;18.25;;;9.20;95.20;;;;;;6177513;28;20053;-83
2022/03/31 01:59:16;;;;;;;44.28;17.33;;;9.20;95.00;;;;;;6177218;28;20054;-82
2022/03/31 02:02:18;;;;;;;41.22;15.98;;;9.30;95.00;;;;;;6177243;28;20047;-83
2022/03/31 02:05:20;;;;;;;28.95;13.68;;;9.30;94.90;;;;;;6176781;28;20057;-83
2022/03/31 02:08:22;;;;;;;32.80;15.15;;;9.30;94.60;;;;;;6177253;28;20059;-83
2022/03/31 02:11:25;;;;;;;34.55;14.95;;;9.40;94.80;;;;;;6176892;28;20404;-83
2022/03/31 02:14:27;;;;;;;26.73;12.18;;;9.50;94.40;;;;;;6177167;28;20047;-83
2022/03/31 02:17:29;;;;;;;26.27;10.70;;;9.40;93.60;;;;;;6176246;28;20504;-81
2022/03/31 02:20:32;;;;;;;24.13;12.65;;;9.20;93.20;;;;;;6181800;28;20046;-83
2022/03/31 02:23:34;;;;;;;17.40;9.13;;;9.10;93.30;;;;;;6199998;28;20506;-83
2022/03/31 02:26:37;;;;;;;18.20;9.55;;;9.00;93.40;;;;;;6200595;28;20077;-82
2022/03/31 02:29:39;;;;;;;18.55;10.40;;;9.00;93.40;;;;;;6199726;28;20463;-82
2022/03/31 02:32:42;;;;;;;18.35;8.85;;;9.10;93.20;;;;;;6198883;28;20427;-82
2022/03/31 02:35:44;;;;;;;15.63;9.45;;;9.00;92.80;;;;;;6200418;28;20471;-82
2022/03/31 02:38:46;;;;;;;19.30;10.20;;;8.80;93.00;;;;;;6198953;28;20170;-84
2022/03/31 02:41:49;;;;;;;17.13;8.82;;;8.80;93.00;;;;;;6177387;28;20702;-82
2022/03/31 02:44:51;;;;;;;17.10;9.77;;;8.80;93.20;;;;;;6175573;28;20126;-82
2022/03/31 02:47:53;;;;;;;15.32;8.98;;;8.80;93.20;;;;;;6180937;28;20106;-82
2022/03/31 02:50:55;;;;;;;15.13;9.18;;;8.70;93.10;;;;;;6178152;28;20053;-83
2022/03/31 02:57:18;;;;;;;11.20;7.18;;;8.70;93.20;;;;;;6176963;28;20046;-83
2022/03/31 03:00:20;;;;;;;17.80;10.18;;;8.60;93.00;;;;;;6176134;28;20051;-83
2022/03/31 03:03:22;;;;;;;19.77;9.80;;;8.50;93.00;;;;;;6176997;28;20166;-83
2022/03/31 03:06:24;;;;;;;19.20;8.02;;;8.60;93.50;;;;;;6176921;28;20186;-83
2022/03/31 03:09:27;;;;;;;18.25;9.63;;;8.60;93.10;;;;;;6176325;28;20055;-81
2022/03/31 03:12:31;;;;;;;21.23;10.65;;;8.50;93.20;;;;;;6178427;28;20058;-83
2022/03/31 03:15:33;;;;;;;16.95;8.88;;;8.40;93.20;;;;;;6177886;28;20440;-82
2022/03/31 03:18:34;;;;;;;15.23;8.82;;;8.30;93.50;;;;;;6175936;28;20057;-82
2022/03/31 03:21:36;;;;;;;19.27;11.35;;;8.20;93.80;;;;;;6189841;28;20069;-81
2022/03/31 03:24:38;;;;;;;18.85;9.63;;;8.00;94.10;;;;;;6204556;28;20041;-82
2022/03/31 03:27:42;;;;;;;19.60;11.05;;;7.80;94.60;;;;;;6224970;28;20055;-83
2022/03/31 03:30:43;;;;;;;20.38;11.90;;;7.70;95.30;;;;;;6224022;28;20116;-81
2022/03/31 03:33:45;;;;;;;15.68;8.88;;;7.70;95.40;;;;;;6224345;28;20515;-81
2022/03/31 03:36:47;;;;;;;21.67;11.98;;;7.60;95.30;;;;;;6224273;28;20153;-80
2022/03/31 03:39:48;;;;;;;15.80;8.73;;;7.50;95.40;;;;;;6224269;28;20057;-81
2022/03/31 03:42:53;;;;;;;23.15;11.90;;;7.50;95.60;;;;;;6223859;28;20050;-82
2022/03/31 03:45:55;;;;;;;21.02;11.20;;;7.40;95.60;;;;;;6227397;28;20072;-81
2022/03/31 03:48:57;;;;;;;20.70;11.50;;;7.40;95.60;;;;;;6228109;28;20046;-81
2022/03/31 03:51:58;;;;;;;23.75;13.07;;;7.30;95.50;;;;;;6228669;28;20565;-81
2022/03/31 03:55:00;;;;;;;22.60;12.25;;;7.30;95.80;;;;;;6227824;28;20577;-80
2022/03/31 03:58:04;;;;;;;24.70;13.23;;;7.40;95.70;;;;;;6236786;28;20132;-79
2022/03/31 04:01:06;;;;;;;22.52;12.27;;;7.40;95.60;;;;;;6252001;28;20171;-82
2022/03/31 04:04:08;;;;;;;19.48;12.48;;;7.40;95.10;;;;;;6253412;28;20065;-83
2022/03/31 04:07:10;;;;;;;26.48;12.80;;;7.40;95.30;;;;;;6252784;28;20072;-82
2022/03/31 04:10:12;;;;;;;24.67;13.05;;;7.50;95.00;;;;;;6251900;28;20051;-82
2022/03/31 04:13:15;;;;;;;25.52;13.23;;;7.40;95.00;;;;;;6252157;28;20091;-82
2022/03/31 04:16:16;;;;;;;23.52;12.43;;;7.40;95.20;;;;;;6252449;28;20045;-81
2022/03/31 04:19:19;;;;;;;19.05;10.25;;;7.40;95.50;;;;;;6254270;28;20136;-81
2022/03/31 04:22:21;;;;;;;23.65;13.23;;;7.40;95.50;;;;;;6237321;28;20049;-81
2022/03/31 04:25:24;;;;;;;26.48;12.55;;;7.30;96.00;;;;;;6228187;28;20042;-82
2022/03/31 04:28:27;;;;;;;24.48;12.75;;;7.30;96.80;;;;;;6227895;28;20393;-81
2022/03/31 04:31:29;;;;;;;28.52;12.35;;;7.20;96.80;;;;;;6231376;28;20156;-82
2022/03/31 04:34:31;;;;;;;25.90;12.63;;;7.00;97.50;;;;;;6228724;28;20662;-82
2022/03/31 04:37:33;;;;;;;31.00;15.23;;;6.80;97.50;;;;;;6228689;28;20462;-82
2022/03/31 04:40:35;;;;;;;27.92;14.70;;;6.70;98.20;;;;;;6228303;28;20042;-83
2022/03/31 04:43:38;;;;;;;34.70;15.25;;;6.60;98.10;;;;;;6233975;28;20053;-82
2022/03/31 04:46:40;;;;;;;36.30;15.93;;;6.60;98.70;;;;;;6244215;28;20042;-81
2022/03/31 04:49:42;;;;;;;33.00;14.57;;;6.60;98.80;;;;;;6234968;28;20057;-83
2022/03/31 04:52:44;;;;;;;29.40;14.95;;;6.60;99.30;;;;;;6228426;28;20046;-81
2022/03/31 04:55:47;;;;;;;37.85;16.67;;;6.50;99.20;;;;;;6228797;28;20140;-84
2022/03/31 04:58:50;;;;;;;32.78;13.98;;;6.50;99.20;;;;;;6227764;28;20053;-83
2022/03/31 05:01:52;;;;;;;35.13;15.85;;;6.40;99.30;;;;;;6228098;28;20041;-83
2022/03/31 05:04:54;;;;;;;45.08;15.50;;;6.30;99.60;;;;;;6228159;28;20042;-84
2022/03/31 05:07:56;;;;;;;0.00;0.00;;;6.30;99.60;;;;;;6228059;28;20050;-83
2022/03/31 05:11:00;;;;;;;0.00;0.00;;;6.20;99.70;;;;;;6227613;28;20189;-83
2022/03/31 05:14:03;;;;;;;0.00;0.00;;;6.40;99.90;;;;;;6227969;28;20057;-83
2022/03/31 05:17:06;;;;;;;0.52;0.52;;;6.40;99.90;;;;;;6227222;28;20053;-83
2022/03/31 05:20:10;;;;;;;0.00;0.00;;;6.40;99.90;;;;;;6227368;28;20050;-83
2022/03/31 05:23:12;;;;;;;0.00;0.00;;;6.40;99.90;;;;;;6217759;28;20193;-83
2022/03/31 05:26:14;;;;;;;0.00;0.00;;;6.40;99.90;;;;;;6202370;28;20467;-81
2022/03/31 05:29:18;;;;;;;0.00;0.00;;;6.40;99.90;;;;;;6201882;28;20054;-81
2022/03/31 05:32:20;;;;;;;0.15;0.15;;;6.40;99.90;;;;;;6201630;28;20434;-80
2022/03/31 05:35:27;;;;;;;0.00;0.00;;;6.40;99.90;;;;;;6203315;28;20042;-83
2022/03/31 05:38:30;;;;;;;0.00;0.00;;;6.50;99.90;;;;;;6202850;28;20125;-81
2022/03/31 05:41:32;;;;;;;0.00;0.00;;;6.40;99.90;;;;;;6204303;28;20467;-81
2022/03/31 05:44:35;;;;;;;0.00;0.00;;;6.40;99.90;;;;;;6202790;28;20054;-83
2022/03/31 05:47:37;;;;;;;0.00;0.00;;;6.30;99.90;;;;;;6203263;28;20431;-81
2022/03/31 05:50:39;;;;;;;0.00;0.00;;;6.30;99.90;;;;;;6203069;28;20135;-81
2022/03/31 05:53:41;;;;;;;0.05;0.05;;;6.30;99.90;;;;;;6203580;28;20145;-81
2022/03/31 05:56:43;;;;;;;0.00;0.00;;;6.30;99.90;;;;;;6206192;28;20174;-83
2022/03/31 05:59:47;;;;;;;0.00;0.00;;;6.30;99.90;;;;;;6202669;28;20050;-83
2022/03/31 06:02:50;;;;;;;0.00;0.00;;;6.30;99.90;;;;;;6200891;28;20397;-84
2022/03/31 06:05:52;;;;;;;0.00;0.00;;;6.30;99.90;;;;;;6202354;28;20051;-83
2022/03/31 06:09:00;;;;;;;0.00;0.00;;;6.40;99.90;;;;;;6224421;28;20459;-83
2022/03/31 06:12:02;;;;;;;0.00;0.00;;;6.40;99.90;;;;;;6225887;28;20061;-83
2022/03/31 06:15:07;;;;;;;0.00;0.00;;;6.40;99.90;;;;;;6226306;28;20707;-83
2022/03/31 06:18:09;;;;;;;0.55;0.55;;;6.50;99.90;;;;;;6225768;28;20128;-83
2022/03/31 06:21:11;;;;;;;0.00;0.00;;;6.50;99.90;;;;;;6225964;28;20690;-82
2022/03/31 06:24:12;;;;;;;0.00;0.00;;;6.50;99.90;;;;;;6219525;28;20094;-82
2022/03/31 06:27:14;;;;;;;0.00;0.00;;;6.50;99.90;;;;;;6225119;28;20050;-83
2022/03/31 06:30:17;;;;;;;0.00;0.00;;;6.50;99.90;;;;;;6224662;28;20056;-82
2022/03/31 06:33:20;;;;;;;0.00;0.00;;;6.50;99.90;;;;;;6225170;28;20068;-83
2022/03/31 06:36:22;;;;;;;0.00;0.00;;;6.50;99.90;;;;;;6224756;28;20627;-82
2022/03/31 06:39:25;;;;;;;0.00;0.00;;;6.60;99.90;;;;;;6224869;28;20125;-83
2022/03/31 06:42:27;;;;;;;0.00;0.00;;;6.60;99.90;;;;;;6223523;28;20128;-83
2022/03/31 06:45:31;;;;;;;0.00;0.00;;;6.70;99.90;;;;;;6223118;28;20038;-83
2022/03/31 06:48:36;;;;;;;0.00;0.00;;;6.80;99.90;;;;;;6224882;28;20042;-83
2022/03/31 06:51:37;;;;;;;0.20;0.20;;;6.70;99.90;;;;;;6224621;28;20518;-83
2022/03/31 06:54:39;;;;;;;1.65;0.80;;;6.70;99.90;;;;;;6224474;28;20069;-82
2022/03/31 06:57:41;;;;;;;0.00;0.00;;;6.60;99.90;;;;;;6223307;28;20450;-81
2022/03/31 07:00:44;;;;;;;0.00;0.00;;;6.50;99.90;;;;;;6225520;28;20474;-82
2022/03/31 07:03:46;;;;;;;0.00;0.00;;;6.50;99.90;;;;;;6225535;28;20046;-82
2022/03/31 07:06:48;;;;;;;0.00;0.00;;;6.60;99.90;;;;;;6227297;28;20160;-83
2022/03/31 07:09:51;;;;;;;0.00;0.00;;;6.70;99.90;;;;;;6225458;28;20535;-83
2022/03/31 07:12:52;;;;;;;0.00;0.00;;;6.80;99.90;;;;;;6226370;28;20052;-83
2022/03/31 07:15:55;;;;;;;0.00;0.00;;;7.00;99.90;;;;;;6227342;28;20037;-82
2022/03/31 07:18:58;;;;;;;0.00;0.00;;;7.00;99.90;;;;;;6234571;28;20101;-82
2022/03/31 07:22:00;;;;;;;0.00;0.00;;;7.20;99.90;;;;;;6238946;28;20052;-81
2022/03/31 07:25:03;;;;;;;0.00;0.00;;;7.40;99.90;;;;;;6228314;28;20181;-82
2022/03/31 07:28:05;;;;;;;0.00;0.00;;;7.40;99.90;;;;;;6237229;28;20046;-83
2022/03/31 07:31:08;;;;;;;0.00;0.00;;;7.70;99.90;;;;;;6204952;28;20046;-83
2022/03/31 07:34:10;;;;;;;0.00;0.00;;;7.90;99.90;;;;;;6231947;28;20141;-83
2022/03/31 07:37:12;;;;;;;0.00;0.00;;;8.10;99.90;;;;;;6232637;28;20046;-81
2022/03/31 07:40:15;;;;;;;0.00;0.00;;;8.10;99.90;;;;;;6231257;28;20113;-83
2022/03/31 07:43:17;;;;;;;0.00;0.00;;;8.10;99.90;;;;;;6214128;28;20090;-80
2022/03/31 07:46:20;;;;;;;0.00;0.00;;;8.10;99.90;;;;;;6195963;28;20050;-81
2022/03/31 07:49:22;;;;;;;0.52;0.45;;;8.10;99.90;;;;;;6205391;28;20578;-79
2022/03/31 07:52:23;;;;;;;0.00;0.00;;;8.10;99.90;;;;;;6237026;28;20108;-81
2022/03/31 07:55:25;;;;;;;0.00;0.00;;;8.10;99.90;;;;;;6197118;28;20054;-81
2022/03/31 07:58:27;;;;;;;0.28;0.28;;;8.10;99.90;;;;;;6198772;28;20128;-82
2022/03/31 08:01:31;;;;;;;0.00;0.00;;;8.30;99.90;;;;;;6198791;28;20056;-83
2022/03/31 08:04:32;;;;;;;0.00;0.00;;;8.40;99.90;;;;;;6197125;28;20518;-81
2022/03/31 08:07:34;;;;;;;0.00;0.00;;;8.50;99.90;;;;;;6197907;28;20137;-81
2022/03/31 08:10:36;;;;;;;0.00;0.00;;;8.50;99.90;;;;;;6197699;28;20050;-80
2022/03/31 08:13:38;;;;;;;0.70;0.70;;;8.40;99.90;;;;;;6196310;28;20053;-82
2022/03/31 08:16:41;;;;;;;0.08;0.08;;;8.30;99.90;;;;;;6194973;28;20057;-80
2022/03/31 08:19:43;;;;;;;0.45;0.45;;;8.10;99.90;;;;;;6219000;28;20050;-80
2022/03/31 08:22:45;;;;;;;0.00;0.00;;;8.20;99.90;;;;;;6207041;28;20512;-83
2022/03/31 08:25:48;;;;;;;0.00;0.00;;;8.20;99.90;;;;;;6195596;28;20045;-82
2022/03/31 08:28:50;;;;;;;0.00;0.00;;;8.40;99.90;;;;;;6217701;28;20048;-82
2022/03/31 08:31:53;;;;;;;0.00;0.00;;;8.50;99.90;;;;;;6224763;28;20058;-83
2022/03/31 08:34:55;;;;;;;0.00;0.00;;;8.60;99.90;;;;;;6224864;28;20129;-83
2022/03/31 08:37:56;;;;;;;0.00;0.00;;;8.80;99.90;;;;;;6225438;28;20053;-82
2022/03/31 08:40:59;;;;;;;0.00;0.00;;;9.10;99.90;;;;;;6225165;28;20042;-80
2022/03/31 08:44:01;;;;;;;0.00;0.00;;;9.50;99.90;;;;;;6225408;28;20539;-79
2022/03/31 08:47:05;;;;;;;0.03;0.03;;;9.70;99.90;;;;;;6202862;28;20042;-80
2022/03/31 08:50:08;;;;;;;0.00;0.00;;;9.60;99.90;;;;;;6201711;28;20054;-82
2022/03/31 08:53:10;;;;;;;0.00;0.00;;;9.80;99.90;;;;;;6217563;28;20081;-81
2022/03/31 08:56:12;;;;;;;3.40;1.35;;;9.70;99.90;;;;;;6249671;28;20132;-83
2022/03/31 08:59:13;;;;;;;0.00;0.00;;;9.80;99.90;;;;;;6253820;28;20070;-82
2022/03/31 09:02:27;;;;;;;2.83;1.55;;;10.00;99.90;;;;;;6261252;28;20575;-81
2022/03/31 09:05:36;;;;;;;0.55;0.55;;;10.10;99.60;;;;;;6255578;28;20069;-80
2022/03/31 09:08:38;;;;;;;0.00;0.00;;;10.00;99.90;;;;;;6254195;28;20045;-81
2022/03/31 09:11:41;;;;;;;0.00;0.00;;;10.20;99.00;;;;;;6255138;28;20140;-81
2022/03/31 09:14:43;;;;;;;2.55;2.38;;;10.40;99.20;;;;;;6254520;28;20060;-80
2022/03/31 09:17:47;;;;;;;0.10;0.10;;;10.60;98.30;;;;;;6214392;28;20500;-80
2022/03/31 09:20:50;;;;;;;0.00;0.00;;;10.50;98.40;;;;;;6182157;28;20071;-81
2022/03/31 09:23:52;;;;;;;0.77;0.73;;;10.70;98.40;;;;;;6184493;28;20065;-82
2022/03/31 09:26:56;;;;;;;24.17;8.32;;;10.90;97.40;;;;;;6195585;28;20130;-82
2022/03/31 09:30:05;;;;;;;29.38;11.38;;;11.00;97.10;;;;;;6209421;28;20052;-82
2022/03/31 09:33:08;;;;;;;32.10;12.73;;;11.00;96.80;;;;;;6208605;28;20053;-83
2022/03/31 09:36:16;;;;;;;35.15;16.13;;;10.90;96.40;;;;;;6207939;28;20054;-83
2022/03/31 09:39:20;;;;;;;21.13;12.73;;;10.80;96.00;;;;;;6209719;28;20054;-82
2022/03/31 09:42:23;;;;;;;30.33;16.85;;;10.80;95.80;;;;;;6214164;28;20126;-82
2022/03/31 09:45:25;;;;;;;32.28;16.63;;;10.70;95.30;;;;;;6208952;28;20117;-80
2022/03/31 09:48:28;;;;;;;32.05;15.85;;;10.90;95.70;;;;;;6195147;28;20066;-81
2022/03/31 09:51:30;;;;;;;27.92;15.38;;;10.90;95.10;;;;;;6183798;28;20121;-82
2022/03/31 09:54:33;;;;;;;31.02;14.77;;;11.00;95.20;;;;;;6183312;28;20468;-83
2022/03/31 09:57:37;;;;;;;27.83;13.65;;;11.00;94.50;;;;;;6184995;28;20043;-81
2022/03/31 10:00:39;;;;;;;22.52;11.45;;;11.00;94.20;;;;;;6182808;28;20047;-83
2022/03/31 10:03:42;;;;;;;23.88;13.20;;;10.90;93.90;;;;;;6185843;28;20058;-81
2022/03/31 10:06:44;;;;;;;29.55;13.60;;;10.80;93.90;;;;;;6205972;28;20049;-83
2022/03/31 10:09:48;;;;;;;25.75;13.77;;;10.60;93.60;;;;;;6205283;28;20046;-81
2022/03/31 10:13:11;;;;;;;28.73;15.27;;;10.50;93.70;;;;;;6210145;28;20038;-82
2022/03/31 10:16:27;;;;;;;25.58;14.20;;;10.40;93.70;;;;;;6189785;28;20070;-82
2022/03/31 10:19:42;;;;;;;28.95;13.15;;;10.30;94.00;;;;;;6182774;28;20090;-81
2022/03/31 10:26:27;;;;;;;26.80;13.23;;;10.30;93.60;;;;;;6180790;28;20043;-81
2022/03/31 10:29:46;;;;;;;22.23;11.07;;;10.30;93.60;;;;;;6177317;28;20523;-82
2022/03/31 10:32:54;;;;;;;17.90;9.68;;;10.40;93.40;;;;;;6176875;28;20157;-80
2022/03/31 10:36:09;;;;;;;23.17;12.07;;;10.50;93.60;;;;;;6175467;28;20424;-80
2022/03/31 10:39:17;;;;;;;28.45;14.05;;;10.70;93.20;;;;;;6199932;28;20522;-81
2022/03/31 10:42:19;;;;;;;21.73;12.93;;;11.20;93.70;;;;;;6198567;28;20411;-81
2022/03/31 10:45:21;;;;;;;23.77;12.90;;;11.50;93.60;;;;;;6216154;28;20049;-82
2022/03/31 10:48:25;;;;;;;25.33;11.65;;;11.90;92.10;;;;;;6232476;28;20055;-82
2022/03/31 10:51:35;;;;;;;21.65;12.70;;;12.20;92.40;;;;;;6249063;28;20419;-81
2022/03/31 10:54:37;;;;;;;25.35;13.88;;;12.30;92.30;;;;;;6226086;28;20397;-81
2022/03/31 10:57:42;;;;;;;21.50;13.23;;;12.50;91.50;;;;;;6223213;28;20053;-80
2022/03/31 11:00:44;;;;;;;20.10;10.90;;;12.40;89.90;;;;;;6222374;28;20041;-78
2022/03/31 11:03:47;;;;;;;24.38;12.07;;;12.20;89.00;;;;;;6224408;28;20389;-80
2022/03/31 11:06:52;;;;;;;18.02;10.20;;;11.90;89.40;;;;;;6223453;28;20416;-79
2022/03/31 11:10:01;;;;;;;20.42;11.27;;;11.70;89.60;;;;;;6223034;28;20052;-81
2022/03/31 11:13:04;;;;;;;22.15;11.23;;;11.60;90.60;;;;;;6223014;28;20136;-80
2022/03/31 11:16:06;;;;;;;21.67;10.73;;;11.70;90.80;;;;;;6228912;28;20045;-80
2022/03/31 11:19:07;;;;;;;24.10;10.48;;;11.80;90.50;;;;;;6226091;28;20510;-79
2022/03/31 11:22:19;;;;;;;17.08;9.70;;;12.10;90.70;;;;;;6224666;28;20056;-78
2022/03/31 11:25:23;;;;;;;13.23;7.82;;;12.00;88.50;;;;;;6224326;28;20049;-81
2022/03/31 11:28:29;;;;;;;15.57;9.00;;;12.00;88.10;;;;;;6215572;28;20042;-80
2022/03/31 11:31:31;;;;;;;21.02;10.15;;;11.90;88.50;;;;;;6198969;28;20568;-80
2022/03/31 11:34:34;;;;;;;14.68;8.80;;;11.90;89.00;;;;;;6199357;28;20397;-81
2022/03/31 11:37:44;;;;;;;20.13;9.85;;;12.20;88.80;;;;;;6200147;28;20047;-79
2022/03/31 11:40:48;;;;;;;18.48;9.23;;;12.30;88.10;;;;;;6199272;28;20046;-81
2022/03/31 11:43:49;;;;;;;16.08;8.48;;;12.30;86.40;;;;;;6200184;28;20092;-79
2022/03/31 11:46:52;;;;;;;15.18;8.90;;;12.40;86.10;;;;;;6231745;28;20041;-80
2022/03/31 11:50:00;;;;;;;14.43;8.43;;;12.30;84.30;;;;;;6249394;28;20429;-82
2022/03/31 11:53:03;;;;;;;20.60;9.38;;;12.30;85.90;;;;;;6242515;28;20064;-82
2022/03/31 11:56:08;;;;;;;14.85;7.85;;;12.30;85.80;;;;;;6223770;28;20420;-81
2022/03/31 11:59:10;;;;;;;15.50;8.40;;;12.50;88.50;;;;;;6223785;28;20053;-81
2022/03/31 12:02:13;;;;;;;13.48;7.82;;;12.60;87.50;;;;;;6223590;28;20054;-80
2022/03/31 12:05:15;;;;;;;13.43;8.40;;;12.80;86.20;;;;;;6226199;28;20072;-80
2022/03/31 12:08:18;;;;;;;13.30;7.15;;;12.90;85.40;;;;;;6228592;28;20042;-80
2022/03/31 12:11:21;;;;;;;14.35;9.77;;;12.80;83.90;;;;;;6228327;28;20128;-80
2022/03/31 12:14:24;;;;;;;16.38;9.32;;;12.60;85.40;;;;;;6227108;28;20095;-81
2022/03/31 12:17:26;;;;;;;13.45;8.07;;;12.70;85.90;;;;;;6243273;28;20076;-80
2022/03/31 12:20:28;;;;;;;13.98;7.22;;;12.70;83.90;;;;;;6252457;28;20106;-80
2022/03/31 12:23:32;;;;;;;47.92;21.45;;;12.50;84.60;;;;;;6252478;28;20087;-80
2022/03/31 12:26:33;;;;;;;12.45;7.75;;;12.50;87.70;;;;;;6245720;28;20088;-80
2022/03/31 12:29:35;;;;;;;13.77;7.50;;;12.70;86.70;;;;;;6224973;28;20068;-81
2022/03/31 12:32:46;;;;;;;11.70;7.20;;;12.80;85.90;;;;;;6224975;28;20499;-81
2022/03/31 12:35:52;;;;;;;12.07;7.60;;;12.70;84.10;;;;;;6226160;28;20103;-80
2022/03/31 12:38:56;;;;;;;11.05;7.72;;;12.40;84.50;;;;;;6225160;28;20482;-79
2022/03/31 12:41:59;;;;;;;13.85;7.15;;;12.30;86.50;;;;;;6226327;28;20050;-80
2022/03/31 12:45:11;;;;;;;15.13;7.75;;;12.30;89.20;;;;;;6230291;28;20056;-81
2022/03/31 12:48:14;;;;;;;11.82;6.65;;;12.40;87.10;;;;;;6243677;28;20045;-81
2022/03/31 12:51:15;;;;;;;13.52;7.60;;;12.40;86.40;;;;;;6252382;28;20164;-82
2022/03/31 12:54:24;;;;;;;18.17;8.85;;;12.40;85.60;;;;;;6238540;28;20078;-82
2022/03/31 12:57:28;;;;;;;18.08;8.07;;;12.30;86.70;;;;;;6201316;28;20042;-81
2022/03/31 13:00:32;;;;;;;15.60;7.85;;;12.10;85.90;;;;;;6201150;28;20050;-81
2022/03/31 13:03:33;;;;;;;13.93;7.03;;;11.90;84.80;;;;;;6201908;28;20065;-82
2022/03/31 13:06:35;;;;;;;9.73;6.82;;;11.80;85.60;;;;;;6200732;28;20509;-83
2022/03/31 13:09:39;;;;;;;18.17;8.73;;;11.70;86.10;;;;;;6201132;28;20054;-81
2022/03/31 13:12:40;;;;;;;12.30;7.05;;;11.70;86.10;;;;;;6201057;28;20483;-81
2022/03/31 13:15:42;;;;;;;12.07;7.28;;;11.80;87.90;;;;;;6214881;28;20121;-82
2022/03/31 13:18:44;;;;;;;11.38;6.32;;;11.90;86.80;;;;;;6265586;22;20074;-85
2022/03/31 13:21:46;;;;;;;12.75;7.05;;;11.90;84.80;;;;;;6240843;28;20391;-84
2022/03/31 13:24:49;;;;;;;14.25;7.53;;;11.80;85.80;;;;;;6252956;28;20245;-84
2022/03/31 13:27:51;;;;;;;12.85;6.30;;;11.80;84.50;;;;;;6251930;28;20184;-86
2022/03/31 13:30:53;;;;;;;13.73;7.32;;;11.80;85.80;;;;;;6251644;28;20054;-85
2022/03/31 13:33:55;;;;;;;12.38;6.43;;;11.80;87.90;;;;;;6226155;28;20061;-84
2022/03/31 13:36:59;;;;;;;12.20;6.75;;;11.70;89.20;;;;;;6228910;28;20049;-84
2022/03/31 13:40:08;;;;;;;14.13;7.18;;;11.60;88.80;;;;;;6228209;28;20054;-84
2022/03/31 13:43:13;;;;;;;51.70;21.75;;;11.50;88.30;;;;;;6200642;28;20054;-84
2022/03/31 13:46:14;;;;;;;14.35;7.93;;;11.40;89.50;;;;;;6216618;28;20110;-85
2022/03/31 13:49:17;;;;;;;14.07;9.85;;;11.50;89.00;;;;;;6227224;28;20049;-83
2022/03/31 13:52:19;;;;;;;21.10;13.27;;;11.50;90.00;;;;;;6226270;28;20050;-85
2022/03/31 13:55:22;;;;;;;19.27;13.57;;;11.60;91.00;;;;;;6224434;28;20054;-87
2022/03/31 14:01:46;;;;;;;18.77;12.73;;;11.60;90.90;;;;;;6208827;28;20046;-86
2022/03/31 14:04:50;;;;;;;19.02;11.70;;;11.70;90.90;;;;;;6200484;28;20046;-85
2022/03/31 14:07:55;;;;;;;17.00;9.18;;;11.70;90.90;;;;;;6200584;28;20046;-85
2022/03/31 14:11:00;;;;;;;17.60;10.45;;;11.70;90.40;;;;;;6203483;28;20534;-86
2022/03/31 14:14:03;;;;;;;20.15;11.77;;;11.60;90.80;;;;;;6200176;28;20047;-84
2022/03/31 14:17:07;;;;;;;18.95;11.68;;;11.50;90.90;;;;;;6231363;28;20094;-85
2022/03/31 14:20:10;;;;;;;19.77;11.88;;;11.50;90.70;;;;;;6251450;28;20053;-83
2022/03/31 14:23:12;;;;;;;19.20;11.60;;;11.50;90.30;;;;;;6253433;28;20055;-83
2022/03/31 14:26:16;;;;;;;21.63;13.20;;;11.40;91.30;;;;;;6250578;28;20124;-83
2022/03/31 14:29:18;;;;;;;21.63;12.95;;;11.50;90.70;;;;;;6248784;28;20064;-84
2022/03/31 14:32:20;;;;;;;24.08;13.63;;;11.30;91.30;;;;;;6244377;28;20058;-83
2022/03/31 14:35:22;;;;;;;22.02;12.80;;;11.30;91.40;;;;;;6227664;28;20133;-83
2022/03/31 14:38:25;;;;;;;20.33;13.13;;;11.20;91.60;;;;;;6225059;28;20515;-83
2022/03/31 14:41:29;;;;;;;24.17;13.35;;;11.10;91.20;;;;;;6236875;28;20462;-84
2022/03/31 14:44:33;;;;;;;23.92;13.55;;;11.00;91.50;;;;;;6252701;28;20051;-85
2022/03/31 14:47:39;;;;;;;23.92;12.15;;;11.00;91.60;;;;;;6251938;28;20851;-84
2022/03/31 14:50:42;;;;;;;20.23;11.98;;;11.10;91.60;;;;;;6230721;28;20125;-86
2022/03/31 14:53:44;;;;;;;21.27;13.68;;;11.10;91.30;;;;;;6230287;28;20053;-83
2022/03/31 14:56:48;;;;;;;23.75;13.05;;;10.90;91.70;;;;;;6230097;28;20111;-84
2022/03/31 15:00:20;;;;;;;23.75;13.88;;;10.70;93.00;;;;;;6229107;28;20069;-85
2022/03/31 15:03:22;;;;;;;25.85;13.80;;;10.40;94.30;;;;;;6226963;28;20058;-85
2022/03/31 15:06:26;;;;;;;31.75;15.25;;;10.20;95.00;;;;;;6224588;28;20046;-84
2022/03/31 15:16:09;;;;;;;33.50;18.00;;;10.00;96.30;;;;;;6245482;28;20049;-83
2022/03/31 15:19:11;;;;;;;29.33;16.52;;;9.90;96.80;;;;;;6254985;28;20135;-83
2022/03/31 15:22:14;;;;;;;36.00;19.67;;;9.90;97.50;;;;;;6254423;28;20077;-83
2022/03/31 15:25:16;;;;;;;39.50;20.42;;;10.00;97.30;;;;;;6253930;28;20049;-86
2022/03/31 15:28:22;;;;;;;38.65;19.30;;;9.90;97.30;;;;;;6248832;28;20045;-85
2022/03/31 15:39:24;;;;;;;35.13;17.55;;;9.50;97.30;;;;;;6227769;28;20124;-86
2022/03/31 15:42:38;;;;;;;30.40;17.25;;;9.50;97.60;;;;;;6227667;28;20050;-86
2022/03/31 15:45:42;;;;;;;40.42;20.60;;;9.50;97.80;;;;;;6248080;28;20546;-85
2022/03/31 15:48:46;;;;;;;84.65;43.58;;;9.50;98.20;;;;;;6261319;28;20082;-85
2022/03/31 15:59:25;;;;;;;41.22;20.95;;;9.60;97.90;;;;;;6214521;28;20048;-85
2022/03/31 16:02:33;;;;;;;42.22;18.98;;;9.50;97.80;;;;;;6249105;28;20531;-85
2022/03/31 16:05:35;;;;;;;44.92;19.52;;;9.50;98.40;;;;;;6257466;28;20055;-86
2022/03/31 16:08:37;;;;;;;42.50;17.65;;;9.50;98.30;;;;;;6252820;28;20132;-85
2022/03/31 16:11:41;;;;;;;48.38;21.67;;;9.50;98.30;;;;;;6254372;28;20076;-86
2022/03/31 16:14:43;;;;;;;45.83;21.67;;;9.50;98.40;;;;;;6253654;28;20132;-85
2022/03/31 16:17:46;;;;;;;45.70;21.38;;;9.60;98.70;;;;;;6252986;28;20521;-87
2022/03/31 16:20:49;;;;;;;47.72;22.70;;;9.70;98.70;;;;;;6253248;28;20046;-86
2022/03/31 16:24:53;;;;;;;50.72;21.88;;;9.60;98.60;;;;;;6253437;28;20049;-85